createdAt,value
2023-05-05T00:00:57.703Z,165.19
2023-05-05T00:03:24.366Z,166.78
2023-05-05T00:05:50.968Z,168.33
2023-05-05T00:08:17.466Z,164.40
2023-05-05T00:10:43.947Z,167.34
2023-05-05T00:13:10.630Z,164.40
2023-05-05T00:15:37.287Z,160.88
2023-05-05T00:18:03.767Z,163.12
2023-05-05T00:20:30.447Z,165.26
2023-05-05T00:22:56.976Z,162.54
2023-05-05T00:25:23.567Z,157.15
2023-05-05T00:27:50.056Z,158.82
2023-05-05T00:30:16.592Z,159.77
2023-05-05T00:32:43.149Z,155.59
2023-05-05T00:35:09.667Z,154.57
2023-05-05T00:37:39.037Z,159.84
2023-05-05T00:40:05.612Z,156.65
2023-05-05T00:42:32.291Z,154.95
2023-05-05T00:44:58.798Z,155.41
2023-05-05T00:47:25.339Z,151.43
2023-05-05T00:49:51.932Z,150.88
2023-05-05T00:52:18.450Z,149.95
2023-05-05T00:54:44.973Z,149.81
2023-05-05T00:57:11.443Z,150.59
2023-05-05T00:59:38.010Z,149.51
2023-05-05T01:02:04.525Z,149.66
2023-05-05T01:04:31.050Z,146.58
2023-05-05T01:06:57.547Z,145.54
2023-05-05T01:09:24.013Z,143.86
2023-05-05T01:11:50.525Z,142.19
2023-05-05T01:14:17.037Z,141.76
2023-05-05T01:16:43.576Z,143.35
2023-05-05T01:19:10.108Z,142.39
2023-05-05T01:21:36.560Z,140.60
2023-05-05T01:24:03.081Z,138.68
2023-05-05T01:26:29.641Z,137.33
2023-05-05T01:28:56.185Z,138.36
2023-05-05T01:31:22.761Z,140.63
2023-05-05T01:33:49.343Z,136.14
2023-05-05T01:36:17.336Z,138.06
2023-05-05T01:38:43.763Z,135.28
2023-05-05T01:41:10.274Z,135.02
2023-05-05T01:43:39.755Z,133.56
2023-05-05T01:46:06.258Z,128.90
2023-05-05T01:48:32.779Z,134.78
2023-05-05T01:50:59.267Z,132.18
2023-05-05T01:53:25.791Z,124.57
2023-05-05T01:55:52.212Z,127.63
2023-05-05T01:58:18.678Z,126.00
2023-05-05T02:00:45.086Z,126.10
2023-05-05T02:03:11.642Z,127.72
2023-05-05T02:05:38.214Z,128.19
2023-05-05T02:08:04.679Z,124.89
2023-05-05T02:10:31.161Z,127.68
2023-05-05T02:12:57.734Z,123.19
2023-05-05T02:15:24.295Z,121.67
2023-05-05T02:17:50.897Z,121.17
2023-05-05T02:20:17.437Z,119.38
2023-05-05T02:22:43.946Z,119.92
2023-05-05T02:25:10.496Z,123.05
2023-05-05T02:27:36.967Z,120.84
2023-05-05T02:30:03.551Z,120.24
2023-05-05T02:32:30.147Z,116.28
2023-05-05T02:34:56.747Z,119.11
2023-05-05T02:37:23.326Z,117.40
2023-05-05T02:39:49.890Z,116.45
2023-05-05T02:42:16.434Z,117.41
2023-05-05T02:44:42.977Z,114.09
2023-05-05T02:47:09.510Z,114.60
2023-05-05T02:49:36.044Z,113.53
2023-05-05T02:52:02.516Z,116.85
2023-05-05T02:54:29.053Z,114.08
2023-05-05T02:56:55.592Z,114.78
2023-05-05T02:59:22.131Z,111.03
2023-05-05T03:01:48.668Z,106.82
2023-05-05T03:04:15.184Z,111.67
2023-05-05T03:06:41.638Z,107.37
2023-05-05T03:09:08.156Z,108.40
2023-05-05T03:11:34.690Z,105.91
2023-05-05T03:14:01.319Z,106.80
2023-05-05T03:16:27.835Z,106.53
2023-05-05T03:18:54.352Z,103.73
2023-05-05T03:21:20.833Z,106.44
2023-05-05T03:23:47.306Z,106.56
2023-05-05T03:26:13.767Z,106.83
2023-05-05T03:28:40.239Z,103.96
2023-05-05T03:31:06.711Z,103.32
2023-05-05T03:33:33.378Z,99.01
2023-05-05T03:35:59.890Z,102.34
2023-05-05T03:38:26.416Z,99.74
2023-05-05T03:40:52.840Z,101.14
2023-05-05T03:43:19.254Z,99.12
2023-05-05T03:45:45.679Z,101.33
2023-05-05T03:48:12.201Z,101.81
2023-05-05T03:50:38.686Z,97.96
2023-05-05T03:53:05.217Z,96.23
2023-05-05T03:55:31.656Z,102.70
2023-05-05T03:57:58.049Z,98.07
2023-05-05T04:00:24.520Z,95.28
2023-05-05T04:02:51.088Z,95.33
2023-05-05T04:05:17.554Z,94.73
2023-05-05T04:07:43.951Z,98.42
2023-05-05T04:10:10.544Z,94.94
2023-05-05T04:12:37.145Z,95.23
2023-05-05T04:17:29.798Z,90.91
2023-05-05T04:19:56.291Z,91.61
2023-05-05T04:22:22.764Z,90.30
2023-05-05T04:24:49.226Z,88.78
2023-05-05T04:27:15.693Z,90.46
2023-05-05T04:29:42.204Z,88.04
2023-05-05T04:32:08.686Z,86.69
2023-05-05T04:34:35.132Z,85.17
2023-05-05T04:37:01.673Z,87.42
2023-05-05T04:39:28.095Z,88.23
2023-05-05T04:41:54.655Z,83.21
2023-05-05T04:44:21.192Z,82.74
2023-05-05T04:46:47.859Z,78.40
2023-05-05T04:49:14.440Z,77.59
2023-05-05T04:51:40.962Z,86.24
2023-05-05T04:54:07.449Z,91.32
2023-05-05T04:56:33.910Z,90.10
2023-05-05T04:59:00.499Z,89.87
2023-05-05T05:01:27.123Z,88.78
2023-05-05T05:03:53.788Z,90.74
2023-05-05T05:06:20.310Z,87.35
2023-05-05T05:08:46.839Z,88.46
2023-05-05T05:11:13.322Z,86.78
2023-05-05T05:13:39.921Z,85.30
2023-05-05T05:16:06.485Z,87.19
2023-05-05T05:18:33.009Z,84.25
2023-05-05T05:20:59.518Z,85.56
2023-05-05T05:23:26.054Z,86.33
2023-05-05T05:25:52.626Z,87.01
2023-05-05T05:28:19.186Z,84.89
2023-05-05T05:30:45.713Z,84.33
2023-05-05T05:33:12.338Z,82.92
2023-05-05T05:35:38.881Z,78.06
2023-05-05T05:38:05.346Z,78.29
2023-05-05T05:40:31.961Z,77.61
2023-05-05T05:42:58.500Z,73.27
2023-05-05T05:45:24.982Z,74.82
2023-05-05T05:47:51.514Z,73.33
2023-05-05T05:50:17.984Z,74.95
2023-05-05T05:52:44.553Z,75.63
2023-05-05T05:55:11.134Z,70.56
2023-05-05T07:25:51.204Z,62.00
2023-05-05T07:28:17.694Z,62.94
2023-05-05T07:30:44.293Z,58.87
2023-05-05T07:33:10.890Z,62.70
2023-05-05T07:35:37.443Z,62.15
2023-05-05T07:38:03.916Z,61.31
2023-05-05T07:40:30.452Z,61.00
2023-05-05T07:42:56.962Z,59.81
2023-05-05T07:45:23.507Z,63.36
2023-05-05T07:47:50.083Z,63.30
2023-05-05T07:50:16.544Z,62.12
2023-05-05T07:52:48.373Z,61.51
2023-05-05T07:55:20.317Z,58.70
2023-05-05T07:57:46.860Z,57.68
2023-05-05T08:00:13.411Z,61.46
2023-05-05T08:02:40.105Z,60.01
2023-05-05T08:05:07.019Z,58.13
2023-05-05T08:07:33.656Z,59.30
2023-05-05T08:10:00.225Z,59.24
2023-05-05T08:12:26.716Z,56.56
2023-05-05T08:14:53.234Z,57.25
2023-05-05T08:17:19.768Z,57.65
2023-05-05T08:19:46.278Z,56.37
2023-05-05T08:22:12.733Z,57.10
2023-05-05T08:24:39.192Z,56.78
2023-05-05T08:27:05.774Z,55.68
2023-05-05T08:29:32.222Z,58.62
2023-05-05T08:31:59.000Z,57.32
2023-05-05T08:34:25.520Z,57.27
2023-05-05T08:36:52.032Z,54.58
2023-05-05T08:39:18.502Z,53.48
2023-05-05T08:41:45.010Z,52.49
2023-05-05T08:44:11.520Z,55.47
2023-05-05T08:46:38.039Z,54.44
2023-05-05T08:49:04.609Z,52.07
2023-05-05T08:51:31.117Z,53.51
2023-05-05T08:53:57.581Z,56.14
2023-05-05T08:56:24.122Z,51.64
2023-05-05T08:58:50.593Z,54.60
2023-05-05T09:01:17.184Z,53.81
2023-05-05T09:03:44.165Z,51.68
2023-05-05T09:06:10.670Z,55.82
2023-05-05T09:08:37.093Z,52.34
2023-05-05T09:11:03.567Z,52.64
2023-05-05T09:13:30.055Z,51.70
2023-05-05T09:15:56.561Z,49.57
2023-05-05T09:18:23.008Z,52.03
2023-05-05T09:20:49.473Z,51.84
2023-05-05T09:23:15.930Z,52.72
2023-05-05T09:25:42.414Z,49.77
2023-05-05T09:28:08.889Z,49.57
2023-05-05T09:30:35.450Z,51.07
2023-05-05T09:33:01.943Z,48.98
2023-05-05T09:35:28.416Z,49.95
2023-05-05T09:37:54.916Z,51.67
2023-05-05T09:40:21.576Z,48.81
2023-05-05T09:42:48.210Z,50.42
2023-05-05T09:45:14.684Z,51.27
2023-05-05T09:47:41.238Z,50.86
2023-05-05T09:50:08.106Z,49.29
2023-05-05T09:52:34.788Z,48.99
2023-05-05T09:55:01.255Z,47.76
2023-05-05T09:57:27.776Z,45.41
2023-05-05T09:59:54.350Z,48.56
2023-05-05T10:02:20.817Z,44.81
2023-05-05T10:04:47.947Z,44.56
2023-05-05T10:07:14.521Z,44.88
2023-05-05T10:09:41.101Z,47.32
2023-05-05T10:12:07.669Z,44.36
2023-05-05T10:14:34.168Z,45.38
2023-05-05T10:17:00.607Z,42.63
2023-05-05T10:19:27.096Z,41.83
2023-05-05T10:21:53.624Z,44.30
2023-05-05T10:24:20.106Z,46.69
2023-05-05T10:26:46.521Z,42.34
2023-05-05T10:29:12.958Z,41.99
2023-05-05T10:31:39.529Z,43.78
2023-05-05T10:34:06.070Z,44.28
2023-05-05T10:36:32.693Z,41.27
2023-05-05T10:38:59.140Z,43.53
2023-05-05T10:41:25.625Z,40.47
2023-05-05T10:43:52.222Z,43.52
2023-05-05T10:46:18.815Z,44.41
2023-05-05T10:48:45.299Z,40.97
2023-05-05T10:51:11.870Z,38.84
2023-05-05T10:53:38.390Z,41.92
2023-05-05T10:56:04.957Z,40.38
2023-05-05T10:58:31.470Z,43.44
2023-05-05T11:00:58.040Z,42.20
2023-05-05T11:03:24.656Z,38.74
2023-05-05T11:05:51.166Z,42.28
2023-05-05T11:08:17.612Z,41.51
2023-05-05T11:10:44.242Z,40.07
2023-05-05T11:13:10.822Z,40.46
2023-05-05T14:11:41.562Z,29.68
2023-05-05T14:14:08.126Z,30.87
2023-05-05T14:16:34.765Z,31.12
2023-05-05T14:19:01.292Z,32.35
2023-05-05T14:21:27.838Z,30.20
2023-05-05T14:23:54.401Z,32.65
2023-05-05T14:26:20.970Z,32.71
2023-05-05T14:28:49.755Z,30.88
2023-05-05T14:31:16.657Z,34.03
2023-05-05T14:33:43.099Z,31.90
2023-05-05T14:36:09.720Z,32.40
2023-05-05T14:38:36.316Z,32.87
2023-05-05T14:41:02.886Z,31.44
2023-05-05T14:43:29.367Z,32.03
2023-05-05T14:45:55.899Z,32.01
2023-05-05T14:48:22.667Z,32.20
2023-05-05T14:50:49.348Z,32.43
2023-05-05T14:53:15.844Z,31.80
2023-05-05T14:55:42.310Z,29.17
2023-05-05T14:58:09.425Z,31.02
2023-05-05T15:00:35.999Z,28.83
2023-05-05T15:03:02.586Z,33.09
2023-05-05T15:05:29.223Z,30.51
2023-05-05T15:07:55.786Z,29.59
2023-05-05T15:10:22.289Z,28.83
2023-05-05T15:12:48.820Z,31.11
2023-05-05T15:15:15.340Z,29.23
2023-05-05T15:17:41.874Z,29.54
2023-05-05T15:20:08.458Z,30.63
2023-05-05T15:22:34.974Z,31.07
2023-05-05T15:25:01.564Z,30.09
2023-05-05T15:27:28.163Z,28.55
2023-05-05T15:29:54.615Z,29.65
2023-05-05T15:32:21.062Z,28.56
2023-05-05T15:34:49.571Z,30.45
2023-05-05T15:37:16.810Z,28.60
2023-05-05T15:39:43.277Z,29.68
2023-05-05T15:42:09.719Z,29.30
2023-05-05T15:44:36.145Z,28.75
2023-05-05T15:47:02.705Z,29.79
2023-05-05T15:49:29.256Z,27.88
2023-05-05T15:51:55.917Z,28.51
2023-05-05T15:54:22.452Z,27.25
2023-05-05T15:56:48.961Z,29.14
2023-05-05T15:59:15.447Z,29.18
2023-05-05T16:01:41.907Z,29.49
2023-05-05T16:04:08.455Z,29.07
2023-05-05T16:06:34.983Z,29.70
2023-05-05T16:09:01.418Z,31.27
2023-05-05T16:11:27.899Z,31.61
2023-05-05T16:13:54.417Z,31.21
2023-05-05T16:16:20.926Z,29.48
2023-05-05T16:18:47.512Z,29.11
2023-05-05T16:21:13.977Z,29.82
2023-05-05T16:23:40.488Z,28.97
2023-05-05T16:26:06.953Z,29.90
2023-05-05T16:28:33.476Z,30.82
2023-05-05T16:30:59.967Z,31.97
2023-05-05T16:33:26.470Z,32.06
2023-05-05T16:35:53.023Z,34.48
2023-05-05T16:38:19.602Z,32.21
2023-05-05T16:40:46.146Z,31.90
2023-05-05T16:43:12.664Z,31.75
2023-05-05T16:45:39.209Z,33.09
2023-05-05T16:48:07.499Z,33.02
2023-05-05T16:50:35.550Z,33.40
2023-05-05T16:53:02.037Z,32.23
2023-05-05T16:55:28.553Z,34.75
2023-05-05T16:57:55.015Z,35.88
2023-05-05T17:00:21.452Z,49.89
2023-05-05T17:02:47.958Z,54.47
2023-05-05T17:05:14.547Z,53.10
2023-05-05T17:07:41.032Z,56.85
2023-05-05T17:10:07.531Z,57.81
2023-05-05T17:12:33.999Z,59.17
2023-05-05T17:15:00.469Z,59.38
2023-05-05T17:17:26.972Z,55.05
2023-05-05T17:19:53.489Z,54.19
2023-05-05T17:22:19.945Z,57.01
2023-05-05T17:24:46.393Z,59.10
2023-05-05T17:27:12.889Z,55.85
2023-05-05T17:29:39.406Z,55.88
2023-05-05T17:32:06.046Z,49.94
2023-05-05T17:34:32.668Z,49.28
2023-05-05T17:36:59.132Z,53.09
2023-05-05T17:39:25.577Z,52.86
2023-05-05T17:41:51.984Z,54.76
2023-05-05T17:44:18.387Z,56.32
2023-05-05T17:46:44.936Z,56.01
2023-05-05T17:49:11.542Z,62.53
2023-05-05T17:51:38.047Z,64.46
2023-05-05T17:54:04.511Z,64.06
2023-05-05T17:56:30.949Z,62.25
2023-05-05T17:58:57.419Z,61.60
2023-05-05T18:01:24.022Z,61.10
2023-05-05T18:03:50.599Z,63.22
2023-05-05T18:06:17.185Z,64.67
2023-05-05T18:08:43.756Z,64.95
2023-05-05T18:11:10.188Z,64.40
2023-05-05T18:13:36.649Z,64.03
2023-05-05T18:16:03.158Z,61.92
2023-05-05T18:18:29.783Z,57.38
2023-05-05T18:20:56.248Z,56.28
2023-05-05T18:23:22.707Z,74.91
2023-05-05T18:25:49.273Z,183.86
2023-05-05T18:28:15.805Z,241.38
2023-05-05T18:30:42.329Z,262.89
2023-05-05T18:33:08.842Z,262.03
2023-05-05T18:35:35.380Z,308.35
2023-05-05T18:38:01.975Z,308.03
2023-05-05T18:40:28.454Z,313.12
2023-05-05T18:42:54.975Z,299.85
2023-05-05T18:45:21.506Z,303.61
2023-05-05T18:47:48.117Z,302.30
2023-05-05T18:50:14.660Z,292.41
2023-05-05T18:52:41.192Z,299.31
2023-05-05T18:55:07.913Z,305.92
2023-05-05T18:57:34.603Z,299.95
2023-05-05T19:00:01.099Z,297.36
2023-05-05T19:02:27.692Z,297.27
2023-05-05T19:04:54.245Z,298.17
2023-05-05T19:07:33.776Z,295.71
2023-05-05T19:10:01.387Z,291.21
2023-05-05T19:12:27.927Z,287.31
2023-05-05T19:14:54.417Z,284.47
2023-05-05T19:17:20.985Z,277.86
2023-05-05T19:19:47.498Z,280.79
2023-05-05T19:22:14.081Z,278.54
2023-05-05T19:24:40.616Z,274.78
2023-05-05T19:27:07.059Z,271.36
